sensor_id;sensor_type;location;lat;lon;timestamp;temperature;humidity
4461;DHT22;2243;48.812;9.232;2023-06-19T00:00:53;26.50;68.30
4461;DHT22;2243;48.812;9.232;2023-06-19T00:03:24;26.50;68.70
4461;DHT22;2243;48.812;9.232;2023-06-19T00:05:55;26.60;68.40
4461;DHT22;2243;48.812;9.232;2023-06-19T00:08:26;26.50;68.30
4461;DHT22;2243;48.812;9.232;2023-06-19T00:10:57;26.50;68.70
4461;DHT22;2243;48.812;9.232;2023-06-19T00:13:28;26.50;68.70
4461;DHT22;2243;48.812;9.232;2023-06-19T00:16:00;26.50;68.70
4461;DHT22;2243;48.812;9.232;2023-06-19T00:18:31;26.50;68.70
4461;DHT22;2243;48.812;9.232;2023-06-19T00:21:10;26.50;68.80
4461;DHT22;2243;48.812;9.232;2023-06-19T00:23:41;26.50;68.90
4461;DHT22;2243;48.812;9.232;2023-06-19T00:26:12;26.50;68.70
4461;DHT22;2243;48.812;9.232;2023-06-19T00:28:45;26.50;68.70
4461;DHT22;2243;48.812;9.232;2023-06-19T00:31:18;26.40;69.00
4461;DHT22;2243;48.812;9.232;2023-06-19T00:33:49;26.50;68.80
4461;DHT22;2243;48.812;9.232;2023-06-19T00:36:21;26.50;68.70
4461;DHT22;2243;48.812;9.232;2023-06-19T00:38:54;26.50;69.10
4461;DHT22;2243;48.812;9.232;2023-06-19T00:41:27;26.40;69.50
4461;DHT22;2243;48.812;9.232;2023-06-19T00:43:58;26.30;70.50
4461;DHT22;2243;48.812;9.232;2023-06-19T00:46:29;26.20;70.80
4461;DHT22;2243;48.812;9.232;2023-06-19T00:49:01;26.10;71.40
4461;DHT22;2243;48.812;9.232;2023-06-19T00:51:32;26.00;71.80
4461;DHT22;2243;48.812;9.232;2023-06-19T00:54:04;26.00;71.70
4461;DHT22;2243;48.812;9.232;2023-06-19T00:56:37;26.10;70.60
4461;DHT22;2243;48.812;9.232;2023-06-19T00:59:15;26.20;70.30
4461;DHT22;2243;48.812;9.232;2023-06-19T01:01:50;26.20;70.10
4461;DHT22;2243;48.812;9.232;2023-06-19T01:04:22;26.20;70.60
4461;DHT22;2243;48.812;9.232;2023-06-19T01:06:55;26.20;70.60
4461;DHT22;2243;48.812;9.232;2023-06-19T01:09:32;26.10;71.00
4461;DHT22;2243;48.812;9.232;2023-06-19T01:12:10;26.10;71.10
4461;DHT22;2243;48.812;9.232;2023-06-19T01:14:55;26.20;70.00
4461;DHT22;2243;48.812;9.232;2023-06-19T01:17:29;26.40;69.60
4461;DHT22;2243;48.812;9.232;2023-06-19T01:20:01;26.50;69.20
4461;DHT22;2243;48.812;9.232;2023-06-19T01:22:39;26.50;69.10
4461;DHT22;2243;48.812;9.232;2023-06-19T01:25:10;26.40;68.40
4461;DHT22;2243;48.812;9.232;2023-06-19T01:27:44;26.30;68.70
4461;DHT22;2243;48.812;9.232;2023-06-19T01:30:15;26.20;69.20
4461;DHT22;2243;48.812;9.232;2023-06-19T01:32:51;26.10;69.90
4461;DHT22;2243;48.812;9.232;2023-06-19T01:35:28;25.90;70.40
4461;DHT22;2243;48.812;9.232;2023-06-19T01:38:02;25.90;70.60
4461;DHT22;2243;48.812;9.232;2023-06-19T01:40:34;25.80;70.80
4461;DHT22;2243;48.812;9.232;2023-06-19T01:43:07;25.70;71.20
4461;DHT22;2243;48.812;9.232;2023-06-19T01:45:39;25.70;71.40
4461;DHT22;2243;48.812;9.232;2023-06-19T01:48:10;25.60;71.80
4461;DHT22;2243;48.812;9.232;2023-06-19T01:50:46;25.50;72.00
4461;DHT22;2243;48.812;9.232;2023-06-19T01:53:18;25.60;72.20
4461;DHT22;2243;48.812;9.232;2023-06-19T01:55:49;25.50;72.60
4461;DHT22;2243;48.812;9.232;2023-06-19T01:58:20;25.50;72.70
4461;DHT22;2243;48.812;9.232;2023-06-19T02:00:51;25.50;72.60
4461;DHT22;2243;48.812;9.232;2023-06-19T02:03:22;25.50;72.60
4461;DHT22;2243;48.812;9.232;2023-06-19T02:05:53;25.50;73.00
4461;DHT22;2243;48.812;9.232;2023-06-19T02:08:24;25.50;73.10
4461;DHT22;2243;48.812;9.232;2023-06-19T02:10:55;25.50;73.30
4461;DHT22;2243;48.812;9.232;2023-06-19T02:13:26;25.40;73.90
4461;DHT22;2243;48.812;9.232;2023-06-19T02:15:57;25.50;74.10
4461;DHT22;2243;48.812;9.232;2023-06-19T02:18:28;25.40;74.40
4461;DHT22;2243;48.812;9.232;2023-06-19T02:20:59;25.40;74.60
4461;DHT22;2243;48.812;9.232;2023-06-19T02:23:30;25.40;74.60
4461;DHT22;2243;48.812;9.232;2023-06-19T02:26:01;25.30;75.10
4461;DHT22;2243;48.812;9.232;2023-06-19T02:28:32;25.30;75.10
4461;DHT22;2243;48.812;9.232;2023-06-19T02:31:03;25.30;75.30
4461;DHT22;2243;48.812;9.232;2023-06-19T02:33:34;25.20;75.90
4461;DHT22;2243;48.812;9.232;2023-06-19T02:36:05;25.10;75.90
4461;DHT22;2243;48.812;9.232;2023-06-19T02:38:36;25.10;76.20
4461;DHT22;2243;48.812;9.232;2023-06-19T02:41:07;25.20;76.30
4461;DHT22;2243;48.812;9.232;2023-06-19T02:43:39;25.10;76.60
4461;DHT22;2243;48.812;9.232;2023-06-19T02:46:11;25.10;76.90
4461;DHT22;2243;48.812;9.232;2023-06-19T02:48:43;25.10;76.80
4461;DHT22;2243;48.812;9.232;2023-06-19T02:51:14;25.10;77.70
4461;DHT22;2243;48.812;9.232;2023-06-19T02:53:45;25.10;77.10
4461;DHT22;2243;48.812;9.232;2023-06-19T02:56:16;25.00;77.30
4461;DHT22;2243;48.812;9.232;2023-06-19T02:58:47;25.00;77.60
4461;DHT22;2243;48.812;9.232;2023-06-19T03:01:18;25.00;77.50
4461;DHT22;2243;48.812;9.232;2023-06-19T03:03:49;25.00;77.80
4461;DHT22;2243;48.812;9.232;2023-06-19T03:06:23;24.80;78.10
4461;DHT22;2243;48.812;9.232;2023-06-19T03:08:54;25.00;77.80
4461;DHT22;2243;48.812;9.232;2023-06-19T03:11:25;24.90;78.00
4461;DHT22;2243;48.812;9.232;2023-06-19T03:13:56;24.90;78.10
4461;DHT22;2243;48.812;9.232;2023-06-19T03:16:27;24.80;78.50
4461;DHT22;2243;48.812;9.232;2023-06-19T03:18:58;24.80;78.50
4461;DHT22;2243;48.812;9.232;2023-06-19T03:21:29;24.80;78.50
4461;DHT22;2243;48.812;9.232;2023-06-19T03:24:00;24.80;78.70
4461;DHT22;2243;48.812;9.232;2023-06-19T03:26:31;24.80;78.60
4461;DHT22;2243;48.812;9.232;2023-06-19T03:29:02;24.80;78.80
4461;DHT22;2243;48.812;9.232;2023-06-19T03:31:33;24.70;79.00
4461;DHT22;2243;48.812;9.232;2023-06-19T03:34:04;24.70;79.20
4461;DHT22;2243;48.812;9.232;2023-06-19T03:36:35;24.80;79.30
4461;DHT22;2243;48.812;9.232;2023-06-19T03:39:07;24.80;79.30
4461;DHT22;2243;48.812;9.232;2023-06-19T03:41:38;24.70;79.70
4461;DHT22;2243;48.812;9.232;2023-06-19T03:44:09;24.70;79.50
4461;DHT22;2243;48.812;9.232;2023-06-19T03:46:40;24.70;79.70
4461;DHT22;2243;48.812;9.232;2023-06-19T03:49:11;24.60;80.10
4461;DHT22;2243;48.812;9.232;2023-06-19T03:51:42;24.50;80.50
4461;DHT22;2243;48.812;9.232;2023-06-19T03:54:13;24.40;80.70
4461;DHT22;2243;48.812;9.232;2023-06-19T03:56:44;24.40;80.70
4461;DHT22;2243;48.812;9.232;2023-06-19T03:59:15;24.30;81.00
4461;DHT22;2243;48.812;9.232;2023-06-19T04:01:46;24.30;81.10
4461;DHT22;2243;48.812;9.232;2023-06-19T04:04:17;24.20;81.40
4461;DHT22;2243;48.812;9.232;2023-06-19T04:06:48;24.10;81.60
4461;DHT22;2243;48.812;9.232;2023-06-19T04:09:19;24.10;81.70
4461;DHT22;2243;48.812;9.232;2023-06-19T04:11:50;24.10;82.20
4461;DHT22;2243;48.812;9.232;2023-06-19T04:14:21;24.10;82.40
4461;DHT22;2243;48.812;9.232;2023-06-19T04:16:54;24.00;82.30
4461;DHT22;2243;48.812;9.232;2023-06-19T04:19:25;24.00;82.60
4461;DHT22;2243;48.812;9.232;2023-06-19T04:21:56;24.00;83.00
4461;DHT22;2243;48.812;9.232;2023-06-19T04:24:26;23.90;83.30
4461;DHT22;2243;48.812;9.232;2023-06-19T04:26:57;23.90;83.70
4461;DHT22;2243;48.812;9.232;2023-06-19T04:29:29;23.90;83.80
4461;DHT22;2243;48.812;9.232;2023-06-19T04:32:02;23.80;84.20
4461;DHT22;2243;48.812;9.232;2023-06-19T04:34:42;23.70;84.60
4461;DHT22;2243;48.812;9.232;2023-06-19T04:37:17;23.70;85.00
4461;DHT22;2243;48.812;9.232;2023-06-19T04:39:49;23.60;85.50
4461;DHT22;2243;48.812;9.232;2023-06-19T04:42:20;23.50;86.30
4461;DHT22;2243;48.812;9.232;2023-06-19T04:44:52;23.50;86.60
4461;DHT22;2243;48.812;9.232;2023-06-19T04:47:23;23.40;87.10
4461;DHT22;2243;48.812;9.232;2023-06-19T04:50:07;23.30;87.50
4461;DHT22;2243;48.812;9.232;2023-06-19T04:52:38;23.50;87.40
4461;DHT22;2243;48.812;9.232;2023-06-19T04:55:09;23.50;87.30
4461;DHT22;2243;48.812;9.232;2023-06-19T04:57:40;23.60;87.10
4461;DHT22;2243;48.812;9.232;2023-06-19T05:00:12;23.70;86.90
4461;DHT22;2243;48.812;9.232;2023-06-19T05:02:45;23.70;86.60
4461;DHT22;2243;48.812;9.232;2023-06-19T05:05:18;23.80;86.80
4461;DHT22;2243;48.812;9.232;2023-06-19T05:07:53;23.70;87.60
4461;DHT22;2243;48.812;9.232;2023-06-19T05:10:24;23.90;86.80
4461;DHT22;2243;48.812;9.232;2023-06-19T05:12:56;23.90;86.70
4461;DHT22;2243;48.812;9.232;2023-06-19T05:15:27;24.00;86.90
4461;DHT22;2243;48.812;9.232;2023-06-19T05:17:58;24.10;86.70
4461;DHT22;2243;48.812;9.232;2023-06-19T05:20:29;24.00;86.90
4461;DHT22;2243;48.812;9.232;2023-06-19T05:23:00;24.00;86.90
4461;DHT22;2243;48.812;9.232;2023-06-19T05:25:31;23.90;87.10
4461;DHT22;2243;48.812;9.232;2023-06-19T05:28:02;24.00;87.10
4461;DHT22;2243;48.812;9.232;2023-06-19T05:30:35;24.00;87.20
4461;DHT22;2243;48.812;9.232;2023-06-19T05:33:06;23.90;87.80
4461;DHT22;2243;48.812;9.232;2023-06-19T05:35:37;23.70;88.50
4461;DHT22;2243;48.812;9.232;2023-06-19T05:38:09;23.80;88.30
4461;DHT22;2243;48.812;9.232;2023-06-19T05:40:40;23.80;88.80
4461;DHT22;2243;48.812;9.232;2023-06-19T05:43:11;23.70;89.30
4461;DHT22;2243;48.812;9.232;2023-06-19T05:45:43;23.90;88.80
4461;DHT22;2243;48.812;9.232;2023-06-19T05:48:14;24.10;88.20
4461;DHT22;2243;48.812;9.232;2023-06-19T05:50:45;24.10;88.30
4461;DHT22;2243;48.812;9.232;2023-06-19T05:53:16;24.10;88.50
4461;DHT22;2243;48.812;9.232;2023-06-19T05:55:47;24.10;88.50
4461;DHT22;2243;48.812;9.232;2023-06-19T05:58:18;24.20;88.60
4461;DHT22;2243;48.812;9.232;2023-06-19T06:00:51;24.20;88.80
4461;DHT22;2243;48.812;9.232;2023-06-19T06:03:28;24.20;88.80
4461;DHT22;2243;48.812;9.232;2023-06-19T06:06:01;24.10;89.30
4461;DHT22;2243;48.812;9.232;2023-06-19T06:08:35;24.00;89.90
4461;DHT22;2243;48.812;9.232;2023-06-19T06:11:07;23.90;90.20
4461;DHT22;2243;48.812;9.232;2023-06-19T06:13:38;24.00;90.10
4461;DHT22;2243;48.812;9.232;2023-06-19T06:16:09;24.10;90.10
4461;DHT22;2243;48.812;9.232;2023-06-19T06:18:40;24.10;90.00
4461;DHT22;2243;48.812;9.232;2023-06-19T06:21:11;24.10;90.10
4461;DHT22;2243;48.812;9.232;2023-06-19T06:23:43;24.00;90.40
4461;DHT22;2243;48.812;9.232;2023-06-19T06:26:15;24.10;90.30
4461;DHT22;2243;48.812;9.232;2023-06-19T06:28:46;24.20;90.20
4461;DHT22;2243;48.812;9.232;2023-06-19T06:31:17;24.30;90.20
4461;DHT22;2243;48.812;9.232;2023-06-19T06:33:49;24.20;90.40
4461;DHT22;2243;48.812;9.232;2023-06-19T06:36:20;24.30;90.30
4461;DHT22;2243;48.812;9.232;2023-06-19T06:39:05;24.30;90.40
4461;DHT22;2243;48.812;9.232;2023-06-19T06:41:36;24.30;90.50
4461;DHT22;2243;48.812;9.232;2023-06-19T06:44:07;24.20;90.70
4461;DHT22;2243;48.812;9.232;2023-06-19T06:46:38;24.20;90.90
4461;DHT22;2243;48.812;9.232;2023-06-19T06:49:10;24.40;90.80
4461;DHT22;2243;48.812;9.232;2023-06-19T06:51:41;24.50;90.60
4461;DHT22;2243;48.812;9.232;2023-06-19T06:54:13;24.90;89.40
4461;DHT22;2243;48.812;9.232;2023-06-19T06:56:44;25.00;88.10
4461;DHT22;2243;48.812;9.232;2023-06-19T06:59:18;25.10;87.80
4461;DHT22;2243;48.812;9.232;2023-06-19T07:01:49;25.30;87.10
4461;DHT22;2243;48.812;9.232;2023-06-19T07:04:20;25.30;85.90
4461;DHT22;2243;48.812;9.232;2023-06-19T07:06:51;25.30;85.60
4461;DHT22;2243;48.812;9.232;2023-06-19T07:09:22;25.30;85.20
4461;DHT22;2243;48.812;9.232;2023-06-19T07:11:53;25.30;85.00
4461;DHT22;2243;48.812;9.232;2023-06-19T07:14:24;25.30;85.60
4461;DHT22;2243;48.812;9.232;2023-06-19T07:16:55;25.30;85.80
4461;DHT22;2243;48.812;9.232;2023-06-19T07:19:26;25.20;86.10
4461;DHT22;2243;48.812;9.232;2023-06-19T07:21:58;25.30;85.70
4461;DHT22;2243;48.812;9.232;2023-06-19T07:24:29;25.20;85.90
4461;DHT22;2243;48.812;9.232;2023-06-19T07:27:00;25.20;86.00
4461;DHT22;2243;48.812;9.232;2023-06-19T07:29:32;25.20;85.80
4461;DHT22;2243;48.812;9.232;2023-06-19T07:32:03;25.20;85.80
4461;DHT22;2243;48.812;9.232;2023-06-19T07:34:35;25.30;85.40
4461;DHT22;2243;48.812;9.232;2023-06-19T07:37:06;25.30;85.60
4461;DHT22;2243;48.812;9.232;2023-06-19T07:39:40;25.40;84.80
4461;DHT22;2243;48.812;9.232;2023-06-19T07:42:21;25.50;84.60
4461;DHT22;2243;48.812;9.232;2023-06-19T07:44:58;25.50;83.90
4461;DHT22;2243;48.812;9.232;2023-06-19T07:47:29;25.40;84.50
4461;DHT22;2243;48.812;9.232;2023-06-19T07:50:16;25.30;84.80
4461;DHT22;2243;48.812;9.232;2023-06-19T07:52:47;25.50;84.70
4461;DHT22;2243;48.812;9.232;2023-06-19T07:55:18;25.70;84.30
4461;DHT22;2243;48.812;9.232;2023-06-19T07:58:01;25.70;84.20
4461;DHT22;2243;48.812;9.232;2023-06-19T08:00:35;25.90;83.80
4461;DHT22;2243;48.812;9.232;2023-06-19T08:03:20;25.90;82.60
4461;DHT22;2243;48.812;9.232;2023-06-19T08:06:00;25.90;83.40
4461;DHT22;2243;48.812;9.232;2023-06-19T08:08:42;25.90;82.70
4461;DHT22;2243;48.812;9.232;2023-06-19T08:11:16;26.00;83.50
4461;DHT22;2243;48.812;9.232;2023-06-19T08:13:46;26.10;82.70
4461;DHT22;2243;48.812;9.232;2023-06-19T08:16:20;26.10;82.30
4461;DHT22;2243;48.812;9.232;2023-06-19T08:19:01;26.00;81.40
4461;DHT22;2243;48.812;9.232;2023-06-19T08:21:42;26.00;81.90
4461;DHT22;2243;48.812;9.232;2023-06-19T08:24:13;26.00;81.60
4461;DHT22;2243;48.812;9.232;2023-06-19T08:26:44;26.00;81.40
4461;DHT22;2243;48.812;9.232;2023-06-19T08:29:21;26.10;81.40
4461;DHT22;2243;48.812;9.232;2023-06-19T08:31:56;26.30;81.10
4461;DHT22;2243;48.812;9.232;2023-06-19T08:34:36;26.30;81.10
4461;DHT22;2243;48.812;9.232;2023-06-19T08:37:31;26.40;81.20
4461;DHT22;2243;48.812;9.232;2023-06-19T08:40:08;26.40;81.30
4461;DHT22;2243;48.812;9.232;2023-06-19T08:42:45;26.40;81.60
4461;DHT22;2243;48.812;9.232;2023-06-19T08:45:17;26.40;81.00
4461;DHT22;2243;48.812;9.232;2023-06-19T08:48:13;26.50;81.10
4461;DHT22;2243;48.812;9.232;2023-06-19T08:50:47;26.50;81.30
4461;DHT22;2243;48.812;9.232;2023-06-19T08:53:18;26.50;81.60
4461;DHT22;2243;48.812;9.232;2023-06-19T08:55:49;26.50;81.60
4461;DHT22;2243;48.812;9.232;2023-06-19T08:58:22;26.30;82.10
4461;DHT22;2243;48.812;9.232;2023-06-19T09:00:54;26.20;82.70
4461;DHT22;2243;48.812;9.232;2023-06-19T09:03:25;26.20;82.60
4461;DHT22;2243;48.812;9.232;2023-06-19T09:05:58;26.30;82.10
4461;DHT22;2243;48.812;9.232;2023-06-19T09:08:33;26.40;82.50
4461;DHT22;2243;48.812;9.232;2023-06-19T09:11:05;26.40;82.40
4461;DHT22;2243;48.812;9.232;2023-06-19T09:13:40;26.50;82.00
4461;DHT22;2243;48.812;9.232;2023-06-19T09:16:11;26.50;81.50
4461;DHT22;2243;48.812;9.232;2023-06-19T09:18:44;26.60;81.70
4461;DHT22;2243;48.812;9.232;2023-06-19T09:21:19;26.60;82.40
4461;DHT22;2243;48.812;9.232;2023-06-19T09:23:52;26.80;81.80
4461;DHT22;2243;48.812;9.232;2023-06-19T09:26:23;26.90;82.20
4461;DHT22;2243;48.812;9.232;2023-06-19T09:28:55;26.90;81.50
4461;DHT22;2243;48.812;9.232;2023-06-19T09:31:33;27.00;81.20
4461;DHT22;2243;48.812;9.232;2023-06-19T09:34:04;27.00;80.80
4461;DHT22;2243;48.812;9.232;2023-06-19T09:36:36;27.20;80.80
4461;DHT22;2243;48.812;9.232;2023-06-19T09:39:07;27.30;81.30
4461;DHT22;2243;48.812;9.232;2023-06-19T09:41:39;27.40;80.40
4461;DHT22;2243;48.812;9.232;2023-06-19T09:44:12;27.60;80.90
4461;DHT22;2243;48.812;9.232;2023-06-19T09:46:46;27.70;80.80
4461;DHT22;2243;48.812;9.232;2023-06-19T09:49:19;27.90;81.00
4461;DHT22;2243;48.812;9.232;2023-06-19T09:51:51;28.00;79.50
4461;DHT22;2243;48.812;9.232;2023-06-19T09:54:22;28.10;80.10
4461;DHT22;2243;48.812;9.232;2023-06-19T09:56:55;28.20;79.70
4461;DHT22;2243;48.812;9.232;2023-06-19T09:59:29;28.30;79.30
4461;DHT22;2243;48.812;9.232;2023-06-19T10:02:00;28.30;79.20
4461;DHT22;2243;48.812;9.232;2023-06-19T10:04:45;28.30;78.90
4461;DHT22;2243;48.812;9.232;2023-06-19T10:07:18;28.30;79.00
4461;DHT22;2243;48.812;9.232;2023-06-19T10:10:01;28.40;78.50
4461;DHT22;2243;48.812;9.232;2023-06-19T10:15:27;28.50;78.90
4461;DHT22;2243;48.812;9.232;2023-06-19T10:18:03;28.50;78.00
4461;DHT22;2243;48.812;9.232;2023-06-19T10:20:37;28.60;78.60
4461;DHT22;2243;48.812;9.232;2023-06-19T10:23:17;28.70;78.00
4461;DHT22;2243;48.812;9.232;2023-06-19T10:28:31;28.90;78.60
4461;DHT22;2243;48.812;9.232;2023-06-19T10:31:05;28.90;77.40
4461;DHT22;2243;48.812;9.232;2023-06-19T10:33:37;29.00;79.30
4461;DHT22;2243;48.812;9.232;2023-06-19T10:36:20;29.00;77.40
4461;DHT22;2243;48.812;9.232;2023-06-19T10:38:53;29.10;77.40
4461;DHT22;2243;48.812;9.232;2023-06-19T10:41:26;29.20;76.30
4461;DHT22;2243;48.812;9.232;2023-06-19T10:44:07;29.10;77.00
4461;DHT22;2243;48.812;9.232;2023-06-19T10:46:44;28.90;77.50
4461;DHT22;2243;48.812;9.232;2023-06-19T10:49:15;29.00;78.30
4461;DHT22;2243;48.812;9.232;2023-06-19T10:51:48;29.10;77.90
4461;DHT22;2243;48.812;9.232;2023-06-19T10:54:19;29.00;78.00
4461;DHT22;2243;48.812;9.232;2023-06-19T10:56:50;28.90;77.80
4461;DHT22;2243;48.812;9.232;2023-06-19T10:59:22;28.70;78.30
4461;DHT22;2243;48.812;9.232;2023-06-19T11:01:56;28.80;79.40
4461;DHT22;2243;48.812;9.232;2023-06-19T11:04:28;29.10;78.00
4461;DHT22;2243;48.812;9.232;2023-06-19T11:07:05;29.40;77.60
4461;DHT22;2243;48.812;9.232;2023-06-19T11:09:36;29.60;77.10
4461;DHT22;2243;48.812;9.232;2023-06-19T11:12:07;29.60;77.70
4461;DHT22;2243;48.812;9.232;2023-06-19T11:14:39;29.70;77.00
4461;DHT22;2243;48.812;9.232;2023-06-19T11:17:10;30.00;77.30
4461;DHT22;2243;48.812;9.232;2023-06-19T11:19:41;30.30;76.50
4461;DHT22;2243;48.812;9.232;2023-06-19T11:22:14;30.20;75.80
4461;DHT22;2243;48.812;9.232;2023-06-19T11:24:46;30.20;76.10
4461;DHT22;2243;48.812;9.232;2023-06-19T11:27:21;30.50;75.80
4461;DHT22;2243;48.812;9.232;2023-06-19T11:29:58;30.90;74.60
4461;DHT22;2243;48.812;9.232;2023-06-19T11:32:38;31.80;73.60
4461;DHT22;2243;48.812;9.232;2023-06-19T11:35:12;32.80;70.10
4461;DHT22;2243;48.812;9.232;2023-06-19T11:37:44;33.90;68.00
4461;DHT22;2243;48.812;9.232;2023-06-19T11:40:15;34.30;67.20
4461;DHT22;2243;48.812;9.232;2023-06-19T11:42:53;34.40;67.10
4461;DHT22;2243;48.812;9.232;2023-06-19T11:45:24;33.40;69.00
4461;DHT22;2243;48.812;9.232;2023-06-19T11:47:55;33.60;67.60
4461;DHT22;2243;48.812;9.232;2023-06-19T11:50:27;33.60;67.50
4461;DHT22;2243;48.812;9.232;2023-06-19T11:52:59;33.50;67.50
4461;DHT22;2243;48.812;9.232;2023-06-19T11:55:31;33.20;67.90
4461;DHT22;2243;48.812;9.232;2023-06-19T11:58:02;32.80;68.70
4461;DHT22;2243;48.812;9.232;2023-06-19T12:00:33;32.60;68.80
4461;DHT22;2243;48.812;9.232;2023-06-19T12:03:04;32.30;69.50
4461;DHT22;2243;48.812;9.232;2023-06-19T12:05:37;32.00;70.30
4461;DHT22;2243;48.812;9.232;2023-06-19T12:08:08;32.00;70.80
4461;DHT22;2243;48.812;9.232;2023-06-19T12:10:39;31.90;72.00
4461;DHT22;2243;48.812;9.232;2023-06-19T12:13:10;31.80;71.20
4461;DHT22;2243;48.812;9.232;2023-06-19T12:15:41;31.90;70.30
4461;DHT22;2243;48.812;9.232;2023-06-19T12:18:12;31.50;70.80
4461;DHT22;2243;48.812;9.232;2023-06-19T12:20:44;31.20;71.10
4461;DHT22;2243;48.812;9.232;2023-06-19T12:23:15;31.10;71.40
4461;DHT22;2243;48.812;9.232;2023-06-19T12:25:46;31.00;71.70
4461;DHT22;2243;48.812;9.232;2023-06-19T12:28:17;31.00;72.50
4461;DHT22;2243;48.812;9.232;2023-06-19T12:30:49;31.00;72.50
4461;DHT22;2243;48.812;9.232;2023-06-19T12:33:22;31.00;72.90
4461;DHT22;2243;48.812;9.232;2023-06-19T12:35:53;31.10;71.70
4461;DHT22;2243;48.812;9.232;2023-06-19T12:38:24;31.30;71.30
4461;DHT22;2243;48.812;9.232;2023-06-19T12:40:55;31.30;72.30
4461;DHT22;2243;48.812;9.232;2023-06-19T12:43:26;31.60;70.60
4461;DHT22;2243;48.812;9.232;2023-06-19T12:45:57;31.80;69.70
4461;DHT22;2243;48.812;9.232;2023-06-19T12:48:30;31.80;69.80
4461;DHT22;2243;48.812;9.232;2023-06-19T12:51:01;31.60;69.80
4461;DHT22;2243;48.812;9.232;2023-06-19T12:53:32;31.50;70.10
4461;DHT22;2243;48.812;9.232;2023-06-19T12:56:03;31.60;69.70
4461;DHT22;2243;48.812;9.232;2023-06-19T12:58:41;31.90;69.40
4461;DHT22;2243;48.812;9.232;2023-06-19T13:01:12;31.90;69.50
4461;DHT22;2243;48.812;9.232;2023-06-19T13:03:43;32.00;68.80
4461;DHT22;2243;48.812;9.232;2023-06-19T13:06:14;32.20;68.70
4461;DHT22;2243;48.812;9.232;2023-06-19T13:08:45;32.20;69.10
4461;DHT22;2243;48.812;9.232;2023-06-19T13:11:16;32.20;69.40
4461;DHT22;2243;48.812;9.232;2023-06-19T13:13:47;32.20;69.50
4461;DHT22;2243;48.812;9.232;2023-06-19T13:16:18;32.40;69.40
4461;DHT22;2243;48.812;9.232;2023-06-19T13:19:09;32.80;69.40
4461;DHT22;2243;48.812;9.232;2023-06-19T13:21:41;33.20;68.40
4461;DHT22;2243;48.812;9.232;2023-06-19T13:24:12;33.30;68.20
4461;DHT22;2243;48.812;9.232;2023-06-19T13:26:44;33.80;67.90
4461;DHT22;2243;48.812;9.232;2023-06-19T13:29:15;34.00;66.90
4461;DHT22;2243;48.812;9.232;2023-06-19T13:31:46;34.00;66.70
4461;DHT22;2243;48.812;9.232;2023-06-19T13:34:18;34.00;66.10
4461;DHT22;2243;48.812;9.232;2023-06-19T13:36:49;33.80;66.60
4461;DHT22;2243;48.812;9.232;2023-06-19T13:39:20;33.60;66.60
4461;DHT22;2243;48.812;9.232;2023-06-19T13:41:51;33.40;66.50
4461;DHT22;2243;48.812;9.232;2023-06-19T13:44:22;33.20;66.70
4461;DHT22;2243;48.812;9.232;2023-06-19T13:46:53;33.20;67.40
4461;DHT22;2243;48.812;9.232;2023-06-19T13:49:24;33.40;68.00
4461;DHT22;2243;48.812;9.232;2023-06-19T13:51:55;33.50;67.90
4461;DHT22;2243;48.812;9.232;2023-06-19T13:54:26;33.60;67.60
4461;DHT22;2243;48.812;9.232;2023-06-19T13:56:57;33.70;65.30
4461;DHT22;2243;48.812;9.232;2023-06-19T13:59:29;33.60;65.90
4461;DHT22;2243;48.812;9.232;2023-06-19T14:02:00;33.70;65.80
4461;DHT22;2243;48.812;9.232;2023-06-19T14:04:31;33.80;65.20
4461;DHT22;2243;48.812;9.232;2023-06-19T14:07:02;33.80;66.00
4461;DHT22;2243;48.812;9.232;2023-06-19T14:09:34;34.10;65.00
4461;DHT22;2243;48.812;9.232;2023-06-19T14:12:05;34.20;64.60
4461;DHT22;2243;48.812;9.232;2023-06-19T14:14:36;34.00;64.90
4461;DHT22;2243;48.812;9.232;2023-06-19T14:17:07;33.80;64.60
4461;DHT22;2243;48.812;9.232;2023-06-19T14:19:39;33.50;65.20
4461;DHT22;2243;48.812;9.232;2023-06-19T14:22:10;33.50;65.50
4461;DHT22;2243;48.812;9.232;2023-06-19T14:24:40;33.50;65.10
4461;DHT22;2243;48.812;9.232;2023-06-19T14:27:12;33.50;66.20
4461;DHT22;2243;48.812;9.232;2023-06-19T14:29:43;33.50;66.60
4461;DHT22;2243;48.812;9.232;2023-06-19T14:32:14;33.50;66.90
4461;DHT22;2243;48.812;9.232;2023-06-19T14:34:45;33.40;66.90
4461;DHT22;2243;48.812;9.232;2023-06-19T14:37:16;33.40;66.50
4461;DHT22;2243;48.812;9.232;2023-06-19T14:39:47;33.40;67.50
4461;DHT22;2243;48.812;9.232;2023-06-19T14:42:18;33.60;66.50
4461;DHT22;2243;48.812;9.232;2023-06-19T14:44:49;33.70;66.30
4461;DHT22;2243;48.812;9.232;2023-06-19T14:47:20;33.60;66.40
4461;DHT22;2243;48.812;9.232;2023-06-19T14:49:51;33.80;66.90
4461;DHT22;2243;48.812;9.232;2023-06-19T14:52:22;33.70;66.60
4461;DHT22;2243;48.812;9.232;2023-06-19T14:54:54;33.90;66.20
4461;DHT22;2243;48.812;9.232;2023-06-19T14:57:28;34.20;65.50
4461;DHT22;2243;48.812;9.232;2023-06-19T15:00:00;34.30;64.90
4461;DHT22;2243;48.812;9.232;2023-06-19T15:02:31;34.40;65.30
4461;DHT22;2243;48.812;9.232;2023-06-19T15:05:02;34.40;65.40
4461;DHT22;2243;48.812;9.232;2023-06-19T15:07:37;34.20;65.70
4461;DHT22;2243;48.812;9.232;2023-06-19T15:10:08;34.10;65.60
4461;DHT22;2243;48.812;9.232;2023-06-19T15:12:39;34.00;65.30
4461;DHT22;2243;48.812;9.232;2023-06-19T15:15:10;33.80;65.00
4461;DHT22;2243;48.812;9.232;2023-06-19T15:17:42;33.70;65.80
4461;DHT22;2243;48.812;9.232;2023-06-19T15:20:13;33.60;65.30
4461;DHT22;2243;48.812;9.232;2023-06-19T15:22:47;33.70;66.00
4461;DHT22;2243;48.812;9.232;2023-06-19T15:25:18;33.50;66.20
4461;DHT22;2243;48.812;9.232;2023-06-19T15:27:49;33.70;66.50
4461;DHT22;2243;48.812;9.232;2023-06-19T15:30:20;33.90;65.90
4461;DHT22;2243;48.812;9.232;2023-06-19T15:32:52;34.10;65.40
4461;DHT22;2243;48.812;9.232;2023-06-19T15:35:25;34.20;64.70
4461;DHT22;2243;48.812;9.232;2023-06-19T15:37:56;34.10;64.90
4461;DHT22;2243;48.812;9.232;2023-06-19T15:40:29;33.90;65.60
4461;DHT22;2243;48.812;9.232;2023-06-19T15:43:00;33.80;66.00
4461;DHT22;2243;48.812;9.232;2023-06-19T15:45:31;33.70;65.80
4461;DHT22;2243;48.812;9.232;2023-06-19T15:48:03;33.50;66.40
4461;DHT22;2243;48.812;9.232;2023-06-19T15:50:35;33.30;66.10
4461;DHT22;2243;48.812;9.232;2023-06-19T15:53:06;33.30;66.60
4461;DHT22;2243;48.812;9.232;2023-06-19T15:55:38;33.10;66.50
4461;DHT22;2243;48.812;9.232;2023-06-19T15:58:09;33.10;66.70
4461;DHT22;2243;48.812;9.232;2023-06-19T16:00:40;32.80;67.80
4461;DHT22;2243;48.812;9.232;2023-06-19T16:03:11;32.70;68.80
4461;DHT22;2243;48.812;9.232;2023-06-19T16:05:42;32.80;68.10
4461;DHT22;2243;48.812;9.232;2023-06-19T16:08:31;32.90;67.30
4461;DHT22;2243;48.812;9.232;2023-06-19T16:11:02;33.00;67.00
4461;DHT22;2243;48.812;9.232;2023-06-19T16:13:36;32.70;67.00
4461;DHT22;2243;48.812;9.232;2023-06-19T16:16:07;32.60;67.30
4461;DHT22;2243;48.812;9.232;2023-06-19T16:18:38;32.40;68.00
4461;DHT22;2243;48.812;9.232;2023-06-19T16:21:09;32.30;67.90
4461;DHT22;2243;48.812;9.232;2023-06-19T16:23:40;32.10;68.30
4461;DHT22;2243;48.812;9.232;2023-06-19T16:26:11;32.20;68.10
4461;DHT22;2243;48.812;9.232;2023-06-19T16:28:42;32.20;68.10
4461;DHT22;2243;48.812;9.232;2023-06-19T16:31:13;32.20;68.70
4461;DHT22;2243;48.812;9.232;2023-06-19T16:33:45;32.20;68.50
4461;DHT22;2243;48.812;9.232;2023-06-19T16:36:16;32.10;68.20
4461;DHT22;2243;48.812;9.232;2023-06-19T16:38:47;32.10;69.30
4461;DHT22;2243;48.812;9.232;2023-06-19T16:41:18;32.00;68.90